Overview Statistics Trail Chart Weather Telemetry Raw packets
 

This is the latest recevied weather packets stored in our database for station/object W5ITZ. If no packets are shown the sender has not sent any weather packets the latest 10 day(s).

<< 66 67 68 69 70 71 72 >>
Time Temp. Humidity Pressure Rain* Wind** Luminosity Snow
1787761023 32.22° C 66% 1017.4 hPa 0 mm - 784 W/m² -
1787760721 32.78° C 66% 1017.4 hPa 0 mm - 775 W/m² -
1787760417 32.78° C 65% 1017.3 hPa 0 mm - 791 W/m² -
1787760112 32.22° C 66% 1017.3 hPa 0 mm - 735 W/m² -
1787759808 32.22° C 66% 1017.3 hPa 0 mm - 712 W/m² -
1787759504 32.22° C 66% 1017.3 hPa 0 mm - 723 W/m² -
1787759199 32.22° C 68% 1017.5 hPa 0 mm - 723 W/m² -
1787758898 31.67° C 69% 1017.6 hPa 0 mm - 697 W/m² -
1787758594 31.11° C 71% 1017.8 hPa 0 mm - 679 W/m² -
1787758293 31.11° C 69% 1017.8 hPa 0 mm - 191 W/m² -
1787757987 31.67° C 68% 1017.8 hPa 0 mm - 239 W/m² -
1787757685 31.67° C 70% 1017.7 hPa 0 mm - 678 W/m² -
1787757384 31.11° C 71% 1017.9 hPa 0 mm - 594 W/m² -
1787757079 31.11° C 71% 1017.5 hPa 0 mm - 532 W/m² -
1787756773 31.11° C 72% 1017.8 hPa 0 mm - 543 W/m² -
1787756469 30.56° C 73% 1017.8 hPa 0 mm - 530 W/m² -
1787756167 31.11° C 73% 1017.5 hPa 0 mm - 339 W/m² -
1787755862 30.56° C 76% 1017.6 hPa 0 mm - 494 W/m² -
1787755562 30.56° C 77% 1017.4 hPa 0 mm - 484 W/m² -
1787755256 30° C 78% 1017.4 hPa 0 mm - 465 W/m² -
1787754955 30° C 80% 1017.4 hPa 0 mm - 440 W/m² -
1787754650 29.44° C 83% 1017.5 hPa 0 mm - 312 W/m² -
1787754348 29.44° C 83% 1017.6 hPa 0 mm - 123 W/m² -
1787754043 29.44° C 83% 1017.7 hPa 0 mm - 136 W/m² -
1787753743 29.44° C 82% 1017.4 hPa 0 mm - 140 W/m² -

* Rain latest hour (hover to see other rain measurements)
** Current wind speed in m/s (hover to see current wind gust speed)